Time,TemperatureF,DewpointF,PressureIn,WindDirection,WindDirectionDegrees,WindSpeedMPH,WindSpeedGustMPH,Humidity,HourlyPrecipIn,Conditions,Clouds,dailyrainin,SoftwareType,DateUTC
2013-03-10 00:11:00,24.8,22.0,30.31,NE,36,0.0,0.0,88,0.00,,,0.00,weatherlink.com 1.10,2013-03-10 05:11:00,
2013-03-10 00:26:00,24.8,22.0,30.31,NE,35,0.0,0.0,88,0.00,,,0.00,weatherlink.com 1.10,2013-03-10 05:26:00,
2013-03-10 00:41:00,24.7,22.0,30.32,NE,36,0.0,0.0,88,0.00,,,0.00,weatherlink.com 1.10,2013-03-10 05:41:00,
2013-03-10 00:56:00,24.3,21.0,30.32,NE,36,0.0,0.0,87,0.00,,,0.00,weatherlink.com 1.10,2013-03-10 05:56:00,
2013-03-10 01:11:00,23.6,21.0,30.32,NE,36,0.0,0.0,89,0.00,,,0.00,weatherlink.com 1.10,2013-03-10 06:11:00,
2013-03-10 01:26:00,23.1,21.0,30.32,NE,36,0.0,0.0,90,0.00,,,0.00,weatherlink.com 1.10,2013-03-10 06:26:00,
2013-03-10 01:42:00,22.4,20.0,30.32,NE,36,0.0,0.0,90,0.00,,,0.00,weatherlink.com 1.10,2013-03-10 06:42:00,
2013-03-10 01:57:00,21.5,19.0,30.31,NE,36,0.0,0.0,90,0.00,,,0.00,weatherlink.com 1.10,2013-03-10 06:57:00,
2013-03-10 03:12:00,21.0,19.0,30.31,NE,36,0.0,0.0,91,0.00,,,0.00,weatherlink.com 1.10,2013-03-10 07:12:00,
2013-03-10 03:27:00,20.6,19.0,30.30,NE,36,0.0,0.0,92,0.00,,,0.00,weatherlink.com 1.10,2013-03-10 07:27:00,
2013-03-10 03:42:00,20.1,18.0,30.30,NE,36,0.0,0.0,92,0.00,,,0.00,weatherlink.com 1.10,2013-03-10 07:42:00,
2013-03-10 03:57:00,20.6,19.0,30.30,NE,36,0.0,0.0,94,0.00,,,0.00,weatherlink.com 1.10,2013-03-10 07:57:00,
2013-03-10 04:12:00,20.7,19.0,30.30,NE,35,0.0,0.0,94,0.00,,,0.00,weatherlink.com 1.10,2013-03-10 08:12:00,
2013-03-10 04:27:00,20.6,19.0,30.30,NE,36,0.0,0.0,94,0.00,,,0.00,weatherlink.com 1.10,2013-03-10 08:27:00,
2013-03-10 04:42:00,20.1,19.0,30.30,NE,36,0.0,0.0,94,0.00,,,0.00,weatherlink.com 1.10,2013-03-10 08:42:00,
2013-03-10 04:57:00,19.8,18.0,30.30,NE,36,0.0,0.0,94,0.00,,,0.00,weatherlink.com 1.10,2013-03-10 08:57:00,
2013-03-10 05:12:00,19.8,18.0,30.31,NE,36,0.0,0.0,94,0.00,,,0.00,weatherlink.com 1.10,2013-03-10 09:12:00,
2013-03-10 05:27:00,19.9,19.0,30.31,NE,36,0.0,0.0,95,0.00,,,0.00,weatherlink.com 1.10,2013-03-10 09:27:00,
2013-03-10 05:42:00,19.5,18.0,30.31,NE,36,0.0,0.0,94,0.00,,,0.00,weatherlink.com 1.10,2013-03-10 09:42:00,
2013-03-10 05:57:00,19.3,18.0,30.32,NE,35,0.0,0.0,95,0.00,,,0.00,weatherlink.com 1.10,2013-03-10 09:57:00,
2013-03-10 06:12:00,19.4,18.0,30.32,NE,36,0.0,0.0,95,0.00,,,0.00,weatherlink.com 1.10,2013-03-10 10:12:00,
2013-03-10 06:27:00,19.7,19.0,30.32,NE,35,0.0,0.0,96,0.00,,,0.00,weatherlink.com 1.10,2013-03-10 10:27:00,
2013-03-10 06:42:00,20.2,19.0,30.32,NE,36,0.0,0.0,96,0.00,,,0.00,weatherlink.com 1.10,2013-03-10 10:42:00,
2013-03-10 06:57:00,20.4,19.0,30.33,NE,35,0.0,0.0,95,0.00,,,0.00,weatherlink.com 1.10,2013-03-10 10:57:00,
2013-03-10 07:12:00,19.7,19.0,30.33,NW,308,0.0,0.0,95,0.00,,,0.00,weatherlink.com 1.10,2013-03-10 11:12:00,
2013-03-10 07:27:00,19.9,19.0,30.34,NW,307,0.0,0.0,95,0.00,,,0.00,weatherlink.com 1.10,2013-03-10 11:27:00,
2013-03-10 07:42:00,19.4,18.0,30.34,NW,308,0.0,0.0,95,0.00,,,0.00,weatherlink.com 1.10,2013-03-10 11:42:00,
2013-03-10 07:57:00,19.5,18.0,30.34,NW,308,0.0,0.0,95,0.00,,,0.00,weatherlink.com 1.10,2013-03-10 11:57:00,
2013-03-10 08:12:00,20.5,20.0,30.34,NW,308,0.0,0.0,96,0.00,,,0.00,weatherlink.com 1.10,2013-03-10 12:12:00,
2013-03-10 08:27:00,21.5,21.0,30.33,NW,308,0.0,0.0,96,0.00,,,0.00,weatherlink.com 1.10,2013-03-10 12:27:00,
2013-03-10 08:42:00,24.7,24.0,30.33,NW,308,0.0,0.0,98,0.00,,,0.00,weatherlink.com 1.10,2013-03-10 12:42:00,
2013-03-10 08:57:00,27.6,26.0,30.33,NW,309,0.0,0.0,95,0.00,,,0.00,weatherlink.com 1.10,2013-03-10 12:57:00,
2013-03-10 09:14:00,29.7,27.0,30.33,ESE,120,0.0,0.0,90,0.00,,,0.00,weatherlink.com 1.10,2013-03-10 13:14:00,
2013-03-10 09:27:00,32.5,28.0,30.32,East,96,0.0,2.0,82,0.00,,,0.00,weatherlink.com 1.10,2013-03-10 13:27:00,
2013-03-10 09:42:00,34.7,28.0,30.32,ENE,77,1.0,4.0,76,0.00,,,0.00,weatherlink.com 1.10,2013-03-10 13:42:00,
2013-03-10 09:57:00,37.2,29.0,30.32,West,271,0.0,4.0,71,0.00,,,0.00,weatherlink.com 1.10,2013-03-10 13:57:00,
2013-03-10 10:12:00,39.7,29.0,30.32,WSW,252,2.0,3.0,66,0.00,,,0.00,weatherlink.com 1.10,2013-03-10 14:12:00,
2013-03-10 10:28:00,42.0,29.0,30.31,WNW,302,2.0,5.0,61,0.00,,,0.00,weatherlink.com 1.10,2013-03-10 14:28:00,
2013-03-10 10:43:00,43.7,29.0,30.31,NNW,338,1.0,4.0,56,0.00,,,0.00,weatherlink.com 1.10,2013-03-10 14:43:00,
2013-03-10 10:58:00,43.6,28.0,30.30,WNW,285,1.0,6.0,55,0.00,,,0.00,weatherlink.com 1.10,2013-03-10 14:58:00,
2013-03-10 11:13:00,44.4,28.0,30.30,ESE,120,2.0,7.0,53,0.00,,,0.00,weatherlink.com 1.10,2013-03-10 15:13:00,
2013-03-10 11:28:00,45.5,29.0,30.30,NW,323,2.0,4.0,52,0.00,,,0.00,weatherlink.com 1.10,2013-03-10 15:28:00,
2013-03-10 11:44:00,46.3,28.0,30.29,WNW,285,1.0,3.0,50,0.00,,,0.00,weatherlink.com 1.10,2013-03-10 15:44:00,
2013-03-10 11:58:00,46.6,29.0,30.29,ENE,73,3.0,5.0,50,0.00,,,0.00,weatherlink.com 1.10,2013-03-10 15:58:00,
2013-03-10 12:13:00,47.6,29.0,30.29,NNE,23,3.0,6.0,48,0.00,,,0.00,weatherlink.com 1.10,2013-03-10 16:13:00,
2013-03-10 12:28:00,48.5,28.0,30.28,SSE,151,1.0,5.0,46,0.00,,,0.00,weatherlink.com 1.10,2013-03-10 16:28:00,
2013-03-10 12:43:00,48.9,28.0,30.28,ESE,113,0.0,6.0,44,0.00,,,0.00,weatherlink.com 1.10,2013-03-10 16:43:00,
2013-03-10 12:58:00,49.4,28.0,30.27,SSE,150,1.0,5.0,44,0.00,,,0.00,weatherlink.com 1.10,2013-03-10 16:58:00,
2013-03-10 13:13:00,50.9,28.0,30.27,East,82,1.0,6.0,41,0.00,,,0.00,weatherlink.com 1.10,2013-03-10 17:13:00,
2013-03-10 13:28:00,49.7,27.0,30.27,SE,127,1.0,7.0,41,0.00,,,0.00,weatherlink.com 1.10,2013-03-10 17:28:00,
2013-03-10 13:43:00,51.2,27.0,30.26,South,179,1.0,4.0,40,0.00,,,0.00,weatherlink.com 1.10,2013-03-10 17:43:00,
2013-03-10 13:58:00,51.5,28.0,30.25,NW,307,2.0,5.0,40,0.00,,,0.00,weatherlink.com 1.10,2013-03-10 17:58:00,
2013-03-10 14:13:00,52.1,27.0,30.25,NW,313,7.0,7.0,38,0.00,,,0.00,weatherlink.com 1.10,2013-03-10 18:13:00,
2013-03-10 14:28:00,51.5,26.0,30.24,SW,217,3.0,7.0,38,0.00,,,0.00,weatherlink.com 1.10,2013-03-10 18:28:00,
2013-03-10 14:43:00,52.2,27.0,30.23,ENE,71,2.0,3.0,38,0.00,,,0.00,weatherlink.com 1.10,2013-03-10 18:43:00,
2013-03-10 14:58:00,52.3,28.0,30.22,SE,124,1.0,9.0,40,0.00,,,0.00,weatherlink.com 1.10,2013-03-10 18:58:00,
2013-03-10 15:13:00,52.7,28.0,30.22,NW,321,0.0,4.0,38,0.00,,,0.00,weatherlink.com 1.10,2013-03-10 19:13:00,
2013-03-10 15:28:00,54.0,28.0,30.21,SSE,157,3.0,4.0,37,0.00,,,0.00,weatherlink.com 1.10,2013-03-10 19:28:00,
2013-03-10 15:43:00,54.7,27.0,30.21,SE,126,1.0,5.0,35,0.00,,,0.00,weatherlink.com 1.10,2013-03-10 19:43:00,
2013-03-10 15:59:00,53.1,27.0,30.20,ENE,62,5.0,5.0,37,0.00,,,0.00,weatherlink.com 1.10,2013-03-10 19:59:00,
2013-03-10 16:14:00,54.4,28.0,30.20,NNE,15,1.0,6.0,36,0.00,,,0.00,weatherlink.com 1.10,2013-03-10 20:14:00,
2013-03-10 16:29:00,53.4,27.0,30.19,SE,127,0.0,6.0,36,0.00,,,0.00,weatherlink.com 1.10,2013-03-10 20:29:00,
2013-03-10 16:44:00,51.6,28.0,30.18,West,273,0.0,5.0,40,0.00,,,0.00,weatherlink.com 1.10,2013-03-10 20:44:00,
2013-03-10 16:59:00,52.6,27.0,30.19,WNW,294,1.0,4.0,38,0.00,,,0.00,weatherlink.com 1.10,2013-03-10 20:59:00,
2013-03-10 17:14:00,52.8,28.0,30.18,West,271,1.0,5.0,38,0.00,,,0.00,weatherlink.com 1.10,2013-03-10 21:14:00,
2013-03-10 17:29:00,51.0,28.0,30.18,WNW,283,1.0,4.0,41,0.00,,,0.00,weatherlink.com 1.10,2013-03-10 21:29:00,
2013-03-10 17:44:00,50.3,28.0,30.18,SW,225,0.0,4.0,42,0.00,,,0.00,weatherlink.com 1.10,2013-03-10 21:44:00,
2013-03-10 17:59:00,49.9,28.0,30.17,East,97,1.0,6.0,43,0.00,,,0.00,weatherlink.com 1.10,2013-03-10 21:59:00,
2013-03-10 18:14:00,49.5,29.0,30.17,NE,34,0.0,7.0,45,0.00,,,0.00,weatherlink.com 1.10,2013-03-10 22:14:00,
2013-03-10 18:29:00,48.9,29.0,30.18,WSW,253,1.0,4.0,46,0.00,,,0.00,weatherlink.com 1.10,2013-03-10 22:29:00,
2013-03-10 18:44:00,48.8,29.0,30.18,NE,53,2.0,3.0,47,0.00,,,0.00,weatherlink.com 1.10,2013-03-10 22:44:00,
2013-03-10 18:59:00,48.6,30.0,30.18,WSW,252,3.0,5.0,48,0.00,,,0.00,weatherlink.com 1.10,2013-03-10 22:59:00,
2013-03-10 19:14:00,48.4,30.0,30.18,SE,129,2.0,3.0,49,0.00,,,0.00,weatherlink.com 1.10,2013-03-10 23:14:00,
2013-03-10 19:29:00,48.3,30.0,30.17,NNE,13,1.0,6.0,49,0.00,,,0.00,weatherlink.com 1.10,2013-03-10 23:29:00,
2013-03-10 19:44:00,48.0,30.0,30.17,West,266,0.0,4.0,50,0.00,,,0.00,weatherlink.com 1.10,2013-03-10 23:44:00,
2013-03-10 19:59:00,48.0,30.0,30.17,SSE,156,0.0,4.0,51,0.00,,,0.00,weatherlink.com 1.10,2013-03-10 23:59:00,
2013-03-10 20:14:00,47.4,31.0,30.16,WNW,293,1.0,4.0,53,0.00,,,0.00,weatherlink.com 1.10,2013-03-11 00:14:00,
2013-03-10 20:29:00,47.3,31.0,30.17,NNW,334,0.0,3.0,53,0.00,,,0.00,weatherlink.com 1.10,2013-03-11 00:29:00,
2013-03-10 20:44:00,47.3,31.0,30.17,ENE,72,0.0,4.0,53,0.00,,,0.00,weatherlink.com 1.10,2013-03-11 00:44:00,
2013-03-10 20:59:00,47.5,31.0,30.18,NNW,327,1.0,5.0,53,0.00,,,0.00,weatherlink.com 1.10,2013-03-11 00:59:00,
2013-03-10 21:14:00,47.0,31.0,30.18,SSE,158,0.0,5.0,55,0.00,,,0.00,weatherlink.com 1.10,2013-03-11 01:14:00,
2013-03-10 21:29:00,47.1,31.0,30.18,NW,316,2.0,6.0,54,0.00,,,0.00,weatherlink.com 1.10,2013-03-11 01:29:00,
2013-03-10 21:44:00,46.4,31.0,30.17,ESE,113,3.0,6.0,56,0.00,,,0.00,weatherlink.com 1.10,2013-03-11 01:44:00,
2013-03-10 21:59:00,45.9,32.0,30.18,West,281,1.0,6.0,58,0.00,,,0.00,weatherlink.com 1.10,2013-03-11 01:59:00,
2013-03-10 22:14:00,45.5,32.0,30.19,WSW,244,1.0,6.0,59,0.00,,,0.00,weatherlink.com 1.10,2013-03-11 02:14:00,
2013-03-10 22:29:00,45.4,32.0,30.18,WNW,298,2.0,5.0,60,0.00,,,0.00,weatherlink.com 1.10,2013-03-11 02:29:00,
2013-03-10 22:44:00,45.1,33.0,30.19,East,86,1.0,12.0,62,0.00,,,0.00,weatherlink.com 1.10,2013-03-11 02:44:00,
2013-03-10 22:59:00,44.6,33.0,30.18,WNW,283,2.0,6.0,63,0.00,,,0.00,weatherlink.com 1.10,2013-03-11 02:59:00,
2013-03-10 23:14:00,44.0,33.0,30.18,NNW,328,3.0,6.0,65,0.00,,,0.00,weatherlink.com 1.10,2013-03-11 03:14:00,
2013-03-10 23:29:00,43.6,33.0,30.20,WSW,257,0.0,4.0,66,0.00,,,0.00,weatherlink.com 1.10,2013-03-11 03:29:00,
2013-03-10 23:44:00,43.7,33.0,30.20,WSW,258,0.0,6.0,67,0.00,,,0.00,weatherlink.com 1.10,2013-03-11 03:44:00,
2013-03-10 23:59:00,43.2,34.0,30.21,SSW,210,2.0,5.0,69,0.00,,,0.00,weatherlink.com 1.10,2013-03-11 03:59:00,